Weather observations for the past three days for
Yakima Air Terminal - McAllister Field
Imperial (Metric)
Date Time (pdt) Wind (mph) Vis. (mi.) Weather Sky Cond. Temperature (ºF) Relative Humidity Wind Chill (°F) Heat Index (°F) Pressure Precipitation (in)
Air Dwpt 6 hour altimeter (in) sea level (mb) 1 hr 3 hr 6 hr
Max. Min.
01 13:53 Vrbl 7 10.00 Fair CLR 81 48 32% 80 29.68 0.0
01 12:53 W 6 10.00 Fair CLR 75 48 39% 77 29.7 0.0
01 11:53 W 7 10.00 Fair CLR 75 46 36% 77 29.72 1006.0
01 10:53 Vrbl 3 10.00 Fair CLR 70 46 42% 29.73 1006.4
01 09:53 W 3 10.00 Fair CLR 70 46.9 44% 29.74 1006.6
01 08:53 W 9 10.00 Fair CLR 61 45 56% 29.75 1007.0
01 07:53 W 9 10.00 Fair CLR 61 45 56% 29.75 1006.7
01 06:53 W 9 10.00 Fair CLR 55 45 69% 29.74 1006.5
01 05:53 W 9 10.00 Fair CLR 54 45 72% 29.73 1006.4
31 23:53 W 6 10.00 Fair CLR 59 46 62% 29.77 1007.7
31 22:53 W 9 10.00 Fair CLR 61 45 56% 29.77 1007.8
31 21:53 W 7 10.00 Fair CLR 63 45 52% 29.78 1008.1
31 20:53 Calm 10.00 Fair CLR 66 48 52% 29.78 1007.9
31 19:53 SW 5 10.00 Fair CLR 72 46.9 41% 29.76 1007.3
31 18:53 Calm 10.00 Fair CLR 81 48 32% 80 29.76 1007.4
31 17:53 Calm 10.00 Fair CLR 81 45 28% 80 29.78 0.0
31 16:53 E 3 10.00 Fair CLR 82.9 43 24% 81 29.8 0.0
31 15:53 E 5 10.00 Fair CLR 82 43 25% 80 29.83 0.0
31 14:53 Vrbl 5 10.00 Fair CLR 81 44.1 27% 80 29.85 0.0
31 13:53 Vrbl 5 10.00 Fair CLR 79 45 30% 79 29.88 0.0
31 12:53 Calm 10.00 Fair CLR 75.9 42.1 30% 77 29.9 0.0
31 11:53 Calm 10.00 Fair CLR 73 44.1 35% 29.93 1013.3
31 10:53 Calm 10.00 Fair CLR 71.1 45 39% 29.96 1014.0
31 09:53 NW 7 10.00 Fair CLR 64 48 56% 29.97 1014.6
31 08:53 W 8 10.00 Fair CLR 61 46 58% 29.99 1015.3
31 07:53 W 6 10.00 Fair CLR 55 45 69% 29.99 1015.3
31 06:53 W 7 10.00 Fair CLR 46 43 89% 43 29.98 1015.2
30 23:53 SW 7 10.00 Fair CLR 55 45 69% 29.98 1015.0
30 22:53 W 7 10.00 Fair CLR 55.9 42.1 60% 29.98 1015.2
30 21:53 SW 5 10.00 Fair CLR 60.1 44.1 56% 29.98 1015.0
30 20:53 SE 5 10.00 Fair CLR 64.9 44.1 47% 29.97 1014.8
30 19:53 W 3 10.00 Fair CLR 69.1 42.1 38% 29.96 1014.4
30 18:53 SW 3 10.00 Fair CLR 72 44.1 37% 29.95 1014.2
30 17:53 Vrbl 7 10.00 Fair CLR 75 39 27% 77 29.96 1014.3
30 16:53 Vrbl 7 10.00 Fair CLR 75 39 75 66 27% 77 29.97 0.0
30 15:53 E 7 10.00 Fair CLR 75 41 29% 77 29.99 0.0
30 14:53 E 8 10.00 Fair CLR 73 39 29% 30.01 0.0
30 13:53 S 8 10.00 Fair CLR 72 41 33% 30.02 0.0
30 12:53 S 5 10.00 Fair CLR 68 39 35% 30.04 0.0
30 11:53 SE 7 10.00 Fair CLR 70 39 32% 30.05 1017.3
30 09:53 Vrbl 3 10.00 Fair CLR 63 41 45% 30.07 1017.9
30 08:53 Calm 10.00 Fair CLR 57 41 55% 30.08 1018.4
30 07:53 W 3 10.00 Fair CLR 43 37 80% 30.09 1019.0
30 06:53 W 7 10.00 Fair CLR 43 37 80% 39 30.08 0.0
30 05:53 W 7 10.00 Fair CLR 42.1 37.9 85% 38 30.06 1017.9
29 23:53 W 7 10.00 Fair CLR 55 41 59% 30.04 1016.9
29 22:53 NW 10 10.00 Fair CLR 61 43 52% 30.04 1016.9
29 21:53 NW 8 10.00 Fair CLR 61 43 52% 30.05 0.0
29 20:53 NW 10 10.00 Fair CLR 63 41 45% 30.03 1016.5
29 19:53 NW 13 10.00 A Few Clouds FEW060 64 41 43% 30 1015.8
29 18:53 W 10 10.00 A Few Clouds FEW060 66.2 41 40% 29.99 0.0
29 17:53 W 16 G 22 10.00 A Few Clouds FEW060 72 39 30% 29.97 1014.6
29 16:53 W 14 G 23 10.00 A Few Clouds FEW060 72 39 30% 29.97 0.0
29 15:53 W 18 G 25 10.00 Partly Cloudy SCT075 73 39 29% 29.97 0.0
29 14:53 W 16 G 26 10.00 Partly Cloudy SCT075 72 39 30% 29.97 0.0
Date Time (pdt) Wind (mph) Vis. (mi.) Weather Sky Cond. Air Dwpt Max. Min. Relative Humidity Wind Chill (°F) Heat Index (°F) altimeter (in) sea level (mb) 1 hr 3 hr 6 hr
6 hour
Temperature (ºF) Pressure Precipitation (in)